sensor_id;sensor_type;location;lat;lon;timestamp;pressure;altitude;pressure_sealevel;temperature;humidity
5283;BME280;15376;48.540;9.268;2022-07-29T00:00:38;97293.53;;;17.85;100.00
5283;BME280;15376;48.540;9.268;2022-07-29T00:03:04;97290.03;;;17.85;100.00
5283;BME280;15376;48.540;9.268;2022-07-29T00:05:29;97293.06;;;17.77;100.00
5283;BME280;15376;48.540;9.268;2022-07-29T00:07:55;97285.59;;;17.79;100.00
5283;BME280;15376;48.540;9.268;2022-07-29T00:10:20;97270.88;;;17.70;100.00
5283;BME280;15376;48.540;9.268;2022-07-29T00:12:46;97288.75;;;17.76;100.00
5283;BME280;15376;48.540;9.268;2022-07-29T00:15:11;97278.25;;;17.86;100.00
5283;BME280;15376;48.540;9.268;2022-07-29T00:17:37;97271.22;;;17.85;100.00
5283;BME280;15376;48.540;9.268;2022-07-29T00:20:03;97283.13;;;18.12;100.00
5283;BME280;15376;48.540;9.268;2022-07-29T00:22:29;97280.66;;;18.22;100.00
5283;BME280;15376;48.540;9.268;2022-07-29T00:24:54;97221.47;;;17.82;100.00
5283;BME280;15376;48.540;9.268;2022-07-29T00:27:20;97273.88;;;18.20;100.00
5283;BME280;15376;48.540;9.268;2022-07-29T00:29:45;97261.72;;;18.06;100.00
5283;BME280;15376;48.540;9.268;2022-07-29T00:32:11;97274.00;;;18.25;100.00
5283;BME280;15376;48.540;9.268;2022-07-29T00:34:36;97272.47;;;18.17;100.00
5283;BME280;15376;48.540;9.268;2022-07-29T00:37:20;97275.41;;;18.16;100.00
5283;BME280;15376;48.540;9.268;2022-07-29T00:39:46;97275.28;;;18.22;100.00
5283;BME280;15376;48.540;9.268;2022-07-29T00:42:11;97264.66;;;18.16;100.00
5283;BME280;15376;48.540;9.268;2022-07-29T00:44:38;97260.56;;;18.13;100.00
5283;BME280;15376;48.540;9.268;2022-07-29T00:47:03;97272.81;;;18.21;100.00
5283;BME280;15376;48.540;9.268;2022-07-29T00:49:29;97267.81;;;18.13;100.00
5283;BME280;15376;48.540;9.268;2022-07-29T00:51:54;97255.00;;;17.91;100.00
5283;BME280;15376;48.540;9.268;2022-07-29T00:54:19;97209.41;;;17.61;100.00
5283;BME280;15376;48.540;9.268;2022-07-29T00:56:45;97266.22;;;17.88;100.00
5283;BME280;15376;48.540;9.268;2022-07-29T00:59:10;97221.72;;;17.69;100.00
5283;BME280;15376;48.540;9.268;2022-07-29T01:01:36;97252.91;;;17.82;100.00
5283;BME280;15376;48.540;9.268;2022-07-29T01:04:01;97245.19;;;17.74;100.00
5283;BME280;15376;48.540;9.268;2022-07-29T01:06:27;97252.19;;;17.75;100.00
5283;BME280;15376;48.540;9.268;2022-07-29T01:08:52;97247.84;;;17.62;100.00
5283;BME280;15376;48.540;9.268;2022-07-29T01:11:18;97224.03;;;17.42;100.00
5283;BME280;15376;48.540;9.268;2022-07-29T01:13:45;97245.75;;;17.52;100.00
5283;BME280;15376;48.540;9.268;2022-07-29T01:16:37;97241.53;;;17.45;100.00
5283;BME280;15376;48.540;9.268;2022-07-29T01:19:33;97232.41;;;17.34;100.00
5283;BME280;15376;48.540;9.268;2022-07-29T01:21:59;97240.47;;;17.34;100.00
5283;BME280;15376;48.540;9.268;2022-07-29T01:24:39;97243.16;;;17.34;100.00
5283;BME280;15376;48.540;9.268;2022-07-29T01:30:08;97231.84;;;17.32;100.00
5283;BME280;15376;48.540;9.268;2022-07-29T01:32:36;97236.97;;;17.33;100.00
5283;BME280;15376;48.540;9.268;2022-07-29T01:35:05;97236.97;;;17.33;100.00
5283;BME280;15376;48.540;9.268;2022-07-29T01:37:45;97238.13;;;17.26;100.00
5283;BME280;15376;48.540;9.268;2022-07-29T01:43:18;97248.16;;;17.19;100.00
5283;BME280;15376;48.540;9.268;2022-07-29T01:45:48;97238.94;;;17.15;100.00
5283;BME280;15376;48.540;9.268;2022-07-29T01:49:08;97239.63;;;17.22;100.00
5283;BME280;15376;48.540;9.268;2022-07-29T01:51:36;97223.16;;;17.07;100.00
5283;BME280;15376;48.540;9.268;2022-07-29T01:54:12;97237.66;;;17.17;100.00
5283;BME280;15376;48.540;9.268;2022-07-29T01:56:40;97214.53;;;17.05;100.00
5283;BME280;15376;48.540;9.268;2022-07-29T01:59:08;97237.75;;;17.11;100.00
5283;BME280;15376;48.540;9.268;2022-07-29T02:01:36;97225.59;;;16.96;100.00
5283;BME280;15376;48.540;9.268;2022-07-29T02:04:03;97231.78;;;16.97;100.00
5283;BME280;15376;48.540;9.268;2022-07-29T02:06:32;97230.72;;;16.98;100.00
5283;BME280;15376;48.540;9.268;2022-07-29T02:08:58;97224.91;;;17.01;100.00
5283;BME280;15376;48.540;9.268;2022-07-29T02:11:24;97201.63;;;16.83;100.00
5283;BME280;15376;48.540;9.268;2022-07-29T02:13:52;97224.31;;;16.99;100.00
5283;BME280;15376;48.540;9.268;2022-07-29T02:16:21;97231.69;;;17.04;100.00
5283;BME280;15376;48.540;9.268;2022-07-29T02:18:48;97227.16;;;17.16;100.00
5283;BME280;15376;48.540;9.268;2022-07-29T02:21:20;97217.81;;;17.07;100.00
5283;BME280;15376;48.540;9.268;2022-07-29T02:23:48;97222.00;;;17.03;100.00
5283;BME280;15376;48.540;9.268;2022-07-29T02:26:14;97227.53;;;17.19;100.00
5283;BME280;15376;48.540;9.268;2022-07-29T02:28:40;97221.34;;;17.19;100.00
5283;BME280;15376;48.540;9.268;2022-07-29T02:31:07;97211.25;;;17.03;100.00
5283;BME280;15376;48.540;9.268;2022-07-29T02:33:33;97224.81;;;17.08;100.00
5283;BME280;15376;48.540;9.268;2022-07-29T02:35:59;97227.09;;;16.92;100.00
5283;BME280;15376;48.540;9.268;2022-07-29T02:38:27;97231.72;;;16.85;100.00
5283;BME280;15376;48.540;9.268;2022-07-29T02:41:14;97228.00;;;16.75;100.00
5283;BME280;15376;48.540;9.268;2022-07-29T02:43:43;97229.13;;;16.67;100.00
5283;BME280;15376;48.540;9.268;2022-07-29T02:46:13;97226.72;;;16.59;100.00
5283;BME280;15376;48.540;9.268;2022-07-29T02:49:01;97210.50;;;16.54;100.00
5283;BME280;15376;48.540;9.268;2022-07-29T02:51:33;97203.59;;;16.46;100.00
5283;BME280;15376;48.540;9.268;2022-07-29T02:54:06;97195.19;;;16.43;100.00
5283;BME280;15376;48.540;9.268;2022-07-29T02:56:33;97204.19;;;16.48;100.00
5283;BME280;15376;48.540;9.268;2022-07-29T02:59:06;97217.00;;;16.64;100.00
5283;BME280;15376;48.540;9.268;2022-07-29T03:01:34;97201.06;;;16.51;100.00
5283;BME280;15376;48.540;9.268;2022-07-29T03:04:01;97227.31;;;16.61;100.00
5283;BME280;15376;48.540;9.268;2022-07-29T03:06:28;97214.91;;;16.66;100.00
5283;BME280;15376;48.540;9.268;2022-07-29T03:08:56;97221.31;;;16.65;100.00
5283;BME280;15376;48.540;9.268;2022-07-29T03:11:22;97198.66;;;16.61;100.00
5283;BME280;15376;48.540;9.268;2022-07-29T03:13:48;97226.22;;;16.69;100.00
5283;BME280;15376;48.540;9.268;2022-07-29T03:16:14;97221.81;;;16.56;100.00
5283;BME280;15376;48.540;9.268;2022-07-29T03:18:40;97217.50;;;16.55;100.00
5283;BME280;15376;48.540;9.268;2022-07-29T03:21:06;97216.53;;;16.49;100.00
5283;BME280;15376;48.540;9.268;2022-07-29T03:23:31;97219.44;;;16.48;100.00
5283;BME280;15376;48.540;9.268;2022-07-29T03:25:57;97208.00;;;16.41;100.00
5283;BME280;15376;48.540;9.268;2022-07-29T03:28:22;97223.75;;;16.49;100.00
5283;BME280;15376;48.540;9.268;2022-07-29T03:30:48;97203.81;;;16.45;100.00
5283;BME280;15376;48.540;9.268;2022-07-29T03:33:14;97218.47;;;16.60;100.00
5283;BME280;15376;48.540;9.268;2022-07-29T03:35:40;97212.59;;;16.52;100.00
5283;BME280;15376;48.540;9.268;2022-07-29T03:38:06;97215.94;;;16.47;100.00
5283;BME280;15376;48.540;9.268;2022-07-29T03:40:35;97212.19;;;16.37;100.00
5283;BME280;15376;48.540;9.268;2022-07-29T03:43:02;97202.38;;;16.30;100.00
5283;BME280;15376;48.540;9.268;2022-07-29T03:45:29;97221.75;;;16.44;100.00
5283;BME280;15376;48.540;9.268;2022-07-29T03:48:00;97226.91;;;16.46;100.00
5283;BME280;15376;48.540;9.268;2022-07-29T03:50:27;97216.75;;;16.36;100.00
5283;BME280;15376;48.540;9.268;2022-07-29T03:52:53;97231.59;;;16.50;100.00
5283;BME280;15376;48.540;9.268;2022-07-29T03:55:19;97220.34;;;16.42;100.00
5283;BME280;15376;48.540;9.268;2022-07-29T03:57:45;97229.63;;;16.57;100.00
5283;BME280;15376;48.540;9.268;2022-07-29T04:00:12;97229.59;;;16.64;100.00
5283;BME280;15376;48.540;9.268;2022-07-29T04:02:38;97237.75;;;16.69;100.00
5283;BME280;15376;48.540;9.268;2022-07-29T04:05:05;97221.97;;;16.61;100.00
5283;BME280;15376;48.540;9.268;2022-07-29T04:07:36;97226.44;;;16.67;100.00
5283;BME280;15376;48.540;9.268;2022-07-29T04:10:01;97240.13;;;16.77;100.00
5283;BME280;15376;48.540;9.268;2022-07-29T04:12:27;97238.03;;;16.79;100.00
5283;BME280;15376;48.540;9.268;2022-07-29T04:14:52;97240.13;;;16.77;100.00
5283;BME280;15376;48.540;9.268;2022-07-29T04:17:18;97236.63;;;16.77;100.00
5283;BME280;15376;48.540;9.268;2022-07-29T04:19:43;97231.94;;;16.72;100.00
5283;BME280;15376;48.540;9.268;2022-07-29T04:22:08;97242.59;;;16.79;100.00
5283;BME280;15376;48.540;9.268;2022-07-29T04:24:34;97237.91;;;16.74;100.00
5283;BME280;15376;48.540;9.268;2022-07-29T04:26:59;97244.91;;;16.87;100.00
5283;BME280;15376;48.540;9.268;2022-07-29T04:29:25;97250.06;;;16.88;100.00
5283;BME280;15376;48.540;9.268;2022-07-29T04:31:50;97256.47;;;16.87;100.00
5283;BME280;15376;48.540;9.268;2022-07-29T04:34:15;97251.09;;;16.87;100.00
5283;BME280;15376;48.540;9.268;2022-07-29T04:36:41;97261.25;;;16.85;100.00
5283;BME280;15376;48.540;9.268;2022-07-29T04:39:06;97260.66;;;16.83;100.00
5283;BME280;15376;48.540;9.268;2022-07-29T04:41:31;97246.19;;;16.73;100.00
5283;BME280;15376;48.540;9.268;2022-07-29T04:43:57;97253.31;;;16.79;100.00
5283;BME280;15376;48.540;9.268;2022-07-29T04:46:22;97248.72;;;16.67;100.00
5283;BME280;15376;48.540;9.268;2022-07-29T04:48:48;97262.63;;;16.76;100.00
5283;BME280;15376;48.540;9.268;2022-07-29T04:51:14;97263.22;;;16.78;100.00
5283;BME280;15376;48.540;9.268;2022-07-29T04:53:40;97266.13;;;16.77;100.00
5283;BME280;15376;48.540;9.268;2022-07-29T04:56:05;97262.03;;;16.74;100.00
5283;BME280;15376;48.540;9.268;2022-07-29T04:58:31;97255.50;;;16.70;100.00
5283;BME280;15376;48.540;9.268;2022-07-29T05:00:56;97244.69;;;16.77;100.00
5283;BME280;15376;48.540;9.268;2022-07-29T05:03:22;97267.00;;;17.00;100.00
5283;BME280;15376;48.540;9.268;2022-07-29T05:05:47;97264.97;;;17.14;100.00
5283;BME280;15376;48.540;9.268;2022-07-29T05:08:12;97264.97;;;17.26;100.00
5283;BME280;15376;48.540;9.268;2022-07-29T05:10:38;97253.88;;;17.22;100.00
5283;BME280;15376;48.540;9.268;2022-07-29T05:13:05;97271.63;;;17.35;100.00
5283;BME280;15376;48.540;9.268;2022-07-29T05:15:32;97268.72;;;17.37;100.00
5283;BME280;15376;48.540;9.268;2022-07-29T05:17:57;97270.03;;;17.46;100.00
5283;BME280;15376;48.540;9.268;2022-07-29T05:20:22;97272.72;;;17.57;100.00
5283;BME280;15376;48.540;9.268;2022-07-29T05:22:53;97231.97;;;17.49;100.00
5283;BME280;15376;48.540;9.268;2022-07-29T05:25:19;97270.19;;;17.86;100.00
5283;BME280;15376;48.540;9.268;2022-07-29T05:27:44;97267.97;;;17.94;100.00
5283;BME280;15376;48.540;9.268;2022-07-29T05:30:10;97281.47;;;18.11;100.00
5283;BME280;15376;48.540;9.268;2022-07-29T05:32:35;97266.88;;;18.19;100.00
5283;BME280;15376;48.540;9.268;2022-07-29T05:35:01;97256.22;;;18.24;100.00
5283;BME280;15376;48.540;9.268;2022-07-29T05:37:26;97281.75;;;18.50;100.00
5283;BME280;15376;48.540;9.268;2022-07-29T05:39:51;97286.91;;;18.63;100.00
5283;BME280;15376;48.540;9.268;2022-07-29T05:42:17;97283.69;;;18.78;100.00
5283;BME280;15376;48.540;9.268;2022-07-29T05:44:42;97279.84;;;19.02;100.00
5283;BME280;15376;48.540;9.268;2022-07-29T05:47:07;97287.13;;;19.18;100.00
5283;BME280;15376;48.540;9.268;2022-07-29T05:49:33;97279.13;;;19.23;100.00
5283;BME280;15376;48.540;9.268;2022-07-29T05:51:59;97290.34;;;19.49;100.00
5283;BME280;15376;48.540;9.268;2022-07-29T05:54:24;97282.84;;;19.68;100.00
5283;BME280;15376;48.540;9.268;2022-07-29T05:56:50;97295.66;;;19.77;100.00
5283;BME280;15376;48.540;9.268;2022-07-29T05:59:16;97289.69;;;19.92;100.00
5283;BME280;15376;48.540;9.268;2022-07-29T06:01:41;97291.97;;;19.83;100.00
5283;BME280;15376;48.540;9.268;2022-07-29T06:04:06;97302.44;;;19.96;100.00
5283;BME280;15376;48.540;9.268;2022-07-29T06:06:33;97303.25;;;19.97;100.00
5283;BME280;15376;48.540;9.268;2022-07-29T06:08:59;97306.69;;;19.92;100.00
5283;BME280;15376;48.540;9.268;2022-07-29T06:11:25;97306.00;;;20.02;100.00
5283;BME280;15376;48.540;9.268;2022-07-29T06:13:50;97292.16;;;19.77;100.00
5283;BME280;15376;48.540;9.268;2022-07-29T06:16:15;97314.97;;;20.08;100.00
5283;BME280;15376;48.540;9.268;2022-07-29T06:18:41;97306.97;;;20.13;100.00
5283;BME280;15376;48.540;9.268;2022-07-29T06:21:09;97307.28;;;20.16;100.00
5283;BME280;15376;48.540;9.268;2022-07-29T06:23:36;97299.63;;;20.08;100.00
5283;BME280;15376;48.540;9.268;2022-07-29T06:26:02;97302.72;;;20.00;100.00
5283;BME280;15376;48.540;9.268;2022-07-29T06:28:27;97293.88;;;19.83;100.00
5283;BME280;15376;48.540;9.268;2022-07-29T06:30:53;97300.88;;;19.84;100.00
5283;BME280;15376;48.540;9.268;2022-07-29T06:33:18;97303.88;;;20.04;100.00
5283;BME280;15376;48.540;9.268;2022-07-29T06:35:44;97305.81;;;20.09;100.00
5283;BME280;15376;48.540;9.268;2022-07-29T06:38:10;97288.41;;;20.16;100.00
5283;BME280;15376;48.540;9.268;2022-07-29T06:40:36;97292.25;;;20.20;100.00
5283;BME280;15376;48.540;9.268;2022-07-29T06:43:20;97306.09;;;20.46;100.00
5283;BME280;15376;48.540;9.268;2022-07-29T06:45:45;97313.25;;;20.57;100.00
5283;BME280;15376;48.540;9.268;2022-07-29T06:48:11;97272.97;;;20.50;100.00
5283;BME280;15376;48.540;9.268;2022-07-29T06:50:36;97304.63;;;21.04;100.00
5283;BME280;15376;48.540;9.268;2022-07-29T06:53:03;97312.31;;;21.17;100.00
5283;BME280;15376;48.540;9.268;2022-07-29T06:55:28;97316.50;;;21.56;100.00
5283;BME280;15376;48.540;9.268;2022-07-29T06:57:54;97310.72;;;21.80;100.00
5283;BME280;15376;48.540;9.268;2022-07-29T07:00:19;97310.38;;;22.03;100.00
5283;BME280;15376;48.540;9.268;2022-07-29T07:02:45;97299.56;;;22.03;100.00
5283;BME280;15376;48.540;9.268;2022-07-29T07:05:10;97305.91;;;22.24;100.00
5283;BME280;15376;48.540;9.268;2022-07-29T07:07:35;97327.72;;;22.54;100.00
5283;BME280;15376;48.540;9.268;2022-07-29T07:10:01;97319.72;;;22.80;100.00
5283;BME280;15376;48.540;9.268;2022-07-29T07:12:26;97311.25;;;22.61;100.00
5283;BME280;15376;48.540;9.268;2022-07-29T07:14:52;97313.88;;;23.03;100.00
5283;BME280;15376;48.540;9.268;2022-07-29T07:17:17;97315.47;;;22.99;100.00
5283;BME280;15376;48.540;9.268;2022-07-29T07:19:43;97324.44;;;23.20;100.00
5283;BME280;15376;48.540;9.268;2022-07-29T07:22:08;97330.41;;;23.07;100.00
5283;BME280;15376;48.540;9.268;2022-07-29T07:24:33;97317.50;;;22.67;100.00
5283;BME280;15376;48.540;9.268;2022-07-29T07:26:59;97319.34;;;22.56;100.00
5283;BME280;15376;48.540;9.268;2022-07-29T07:29:24;97317.63;;;22.35;100.00
5283;BME280;15376;48.540;9.268;2022-07-29T07:31:49;97332.09;;;22.13;100.00
5283;BME280;15376;48.540;9.268;2022-07-29T07:34:15;97325.72;;;22.29;100.00
5283;BME280;15376;48.540;9.268;2022-07-29T07:36:40;97325.28;;;22.53;100.00
5283;BME280;15376;48.540;9.268;2022-07-29T07:39:06;97324.28;;;22.69;100.00
5283;BME280;15376;48.540;9.268;2022-07-29T07:41:32;97329.25;;;22.92;100.00
5283;BME280;15376;48.540;9.268;2022-07-29T07:43:57;97320.66;;;23.11;96.51
5283;BME280;15376;48.540;9.268;2022-07-29T07:46:23;97328.81;;;23.31;94.61
5283;BME280;15376;48.540;9.268;2022-07-29T07:48:48;97323.97;;;23.48;93.55
5283;BME280;15376;48.540;9.268;2022-07-29T07:51:13;97325.06;;;23.47;93.72
5283;BME280;15376;48.540;9.268;2022-07-29T07:53:39;97315.56;;;23.40;94.09
5283;BME280;15376;48.540;9.268;2022-07-29T07:56:04;97328.28;;;23.39;94.49
5283;BME280;15376;48.540;9.268;2022-07-29T07:58:31;97315.81;;;23.28;88.43
5283;BME280;15376;48.540;9.268;2022-07-29T08:00:57;97327.75;;;23.32;89.65
5283;BME280;15376;48.540;9.268;2022-07-29T08:03:22;97329.38;;;23.33;89.99
5283;BME280;15376;48.540;9.268;2022-07-29T08:05:47;97328.28;;;23.34;91.35
5283;BME280;15376;48.540;9.268;2022-07-29T08:08:15;97332.41;;;23.62;88.40
5283;BME280;15376;48.540;9.268;2022-07-29T08:10:40;97330.25;;;23.54;91.46
5283;BME280;15376;48.540;9.268;2022-07-29T08:13:19;97329.44;;;23.58;88.97
5283;BME280;15376;48.540;9.268;2022-07-29T08:15:45;97318.84;;;23.52;88.04
5283;BME280;15376;48.540;9.268;2022-07-29T08:18:13;97328.06;;;23.66;90.60
5283;BME280;15376;48.540;9.268;2022-07-29T08:20:39;97327.25;;;23.60;86.79
5283;BME280;15376;48.540;9.268;2022-07-29T08:23:07;97330.50;;;23.52;86.12
5283;BME280;15376;48.540;9.268;2022-07-29T08:25:35;97325.63;;;23.65;85.78
5283;BME280;15376;48.540;9.268;2022-07-29T08:28:00;97329.16;;;23.60;87.50
5283;BME280;15376;48.540;9.268;2022-07-29T08:30:26;97321.28;;;23.48;88.76
5283;BME280;15376;48.540;9.268;2022-07-29T08:32:51;97330.00;;;23.91;87.41
5283;BME280;15376;48.540;9.268;2022-07-29T08:35:19;97326.19;;;23.82;88.56
5283;BME280;15376;48.540;9.268;2022-07-29T08:37:44;97328.09;;;23.91;84.05
5283;BME280;15376;48.540;9.268;2022-07-29T08:40:10;97325.09;;;23.93;84.52
5283;BME280;15376;48.540;9.268;2022-07-29T08:42:36;97327.81;;;23.98;82.62
5283;BME280;15376;48.540;9.268;2022-07-29T08:45:02;97320.72;;;24.02;80.10
5283;BME280;15376;48.540;9.268;2022-07-29T08:47:28;97338.09;;;24.01;82.25
5283;BME280;15376;48.540;9.268;2022-07-29T08:49:53;97335.94;;;23.88;84.26
5283;BME280;15376;48.540;9.268;2022-07-29T08:52:19;97329.69;;;23.67;85.99
5283;BME280;15376;48.540;9.268;2022-07-29T08:54:46;97331.88;;;23.75;83.60
5283;BME280;15376;48.540;9.268;2022-07-29T08:57:15;97325.09;;;23.98;80.39
5283;BME280;15376;48.540;9.268;2022-07-29T08:59:42;97336.75;;;24.09;83.51
5283;BME280;15376;48.540;9.268;2022-07-29T09:02:19;97344.59;;;24.20;81.86
5283;BME280;15376;48.540;9.268;2022-07-29T09:04:44;97345.16;;;24.17;80.20
5283;BME280;15376;48.540;9.268;2022-07-29T09:07:14;97350.53;;;24.48;79.44
5283;BME280;15376;48.540;9.268;2022-07-29T09:09:39;97351.06;;;24.55;79.33
5283;BME280;15376;48.540;9.268;2022-07-29T09:12:05;97350.94;;;25.01;74.70
5283;BME280;15376;48.540;9.268;2022-07-29T09:14:33;97348.19;;;25.06;73.37
5283;BME280;15376;48.540;9.268;2022-07-29T09:16:59;97337.16;;;25.31;74.80
5283;BME280;15376;48.540;9.268;2022-07-29T09:19:27;97334.22;;;25.67;73.75
5283;BME280;15376;48.540;9.268;2022-07-29T09:21:54;97317.97;;;25.56;69.46
5283;BME280;15376;48.540;9.268;2022-07-29T09:24:23;97335.72;;;25.49;69.16
5283;BME280;15376;48.540;9.268;2022-07-29T09:26:48;97333.22;;;25.57;69.11
5283;BME280;15376;48.540;9.268;2022-07-29T09:29:22;97343.47;;;25.71;69.65
5283;BME280;15376;48.540;9.268;2022-07-29T09:31:50;97335.47;;;25.84;70.65
5283;BME280;15376;48.540;9.268;2022-07-29T09:34:24;97334.38;;;26.14;66.38
5283;BME280;15376;48.540;9.268;2022-07-29T09:36:51;97333.72;;;26.28;67.71
5283;BME280;15376;48.540;9.268;2022-07-29T09:39:44;97330.97;;;26.33;70.94
5283;BME280;15376;48.540;9.268;2022-07-29T09:42:11;97335.22;;;26.68;66.55
5283;BME280;15376;48.540;9.268;2022-07-29T09:47:09;97327.59;;;27.12;63.52
5283;BME280;15376;48.540;9.268;2022-07-29T09:49:36;97342.47;;;27.20;63.14
5283;BME280;15376;48.540;9.268;2022-07-29T09:52:14;97319.41;;;27.31;65.05
5283;BME280;15376;48.540;9.268;2022-07-29T09:54:40;97337.56;;;27.60;61.90
5283;BME280;15376;48.540;9.268;2022-07-29T09:57:22;97334.03;;;27.40;59.47
5283;BME280;15376;48.540;9.268;2022-07-29T10:00:00;97329.00;;;27.47;60.85
5283;BME280;15376;48.540;9.268;2022-07-29T10:02:30;97329.81;;;27.67;59.10
5283;BME280;15376;48.540;9.268;2022-07-29T10:04:56;97314.25;;;27.48;64.83
5283;BME280;15376;48.540;9.268;2022-07-29T10:07:21;97324.56;;;27.70;59.59
5283;BME280;15376;48.540;9.268;2022-07-29T10:10:05;97319.72;;;28.00;56.86
5283;BME280;15376;48.540;9.268;2022-07-29T10:12:30;97303.38;;;28.13;58.55
5283;BME280;15376;48.540;9.268;2022-07-29T10:14:56;97316.13;;;28.18;63.13
5283;BME280;15376;48.540;9.268;2022-07-29T10:17:21;97319.84;;;28.54;60.50
5283;BME280;15376;48.540;9.268;2022-07-29T10:19:48;97321.47;;;28.55;53.87
5283;BME280;15376;48.540;9.268;2022-07-29T10:22:14;97315.84;;;27.87;58.01
5283;BME280;15376;48.540;9.268;2022-07-29T10:24:39;97317.28;;;27.47;60.62
5283;BME280;15376;48.540;9.268;2022-07-29T10:27:06;97311.16;;;26.99;62.89
5283;BME280;15376;48.540;9.268;2022-07-29T10:29:33;97308.06;;;27.24;66.76
5283;BME280;15376;48.540;9.268;2022-07-29T10:32:07;97307.84;;;27.58;62.56
5283;BME280;15376;48.540;9.268;2022-07-29T10:40:42;97308.41;;;27.74;62.36
5283;BME280;15376;48.540;9.268;2022-07-29T10:43:32;97308.81;;;27.48;56.56
5283;BME280;15376;48.540;9.268;2022-07-29T10:46:02;97304.72;;;27.83;60.30
5283;BME280;15376;48.540;9.268;2022-07-29T10:48:29;97302.06;;;28.11;60.81
5283;BME280;15376;48.540;9.268;2022-07-29T10:50:55;97297.78;;;28.05;55.18
5283;BME280;15376;48.540;9.268;2022-07-29T10:53:22;97295.75;;;28.43;58.67
5283;BME280;15376;48.540;9.268;2022-07-29T10:55:51;97269.22;;;28.84;60.57
5283;BME280;15376;48.540;9.268;2022-07-29T10:58:21;97282.88;;;28.98;55.55
5283;BME280;15376;48.540;9.268;2022-07-29T11:00:52;97276.19;;;29.18;54.91
5283;BME280;15376;48.540;9.268;2022-07-29T11:03:46;97280.56;;;29.41;51.06
5283;BME280;15376;48.540;9.268;2022-07-29T11:06:12;97289.59;;;28.37;49.88
5283;BME280;15376;48.540;9.268;2022-07-29T11:08:38;97289.56;;;28.51;54.19
5283;BME280;15376;48.540;9.268;2022-07-29T11:11:30;97294.25;;;28.37;62.57
5283;BME280;15376;48.540;9.268;2022-07-29T11:13:56;97297.50;;;28.39;65.45
5283;BME280;15376;48.540;9.268;2022-07-29T11:16:22;97292.25;;;28.10;62.86
5283;BME280;15376;48.540;9.268;2022-07-29T11:19:27;97291.59;;;28.32;59.88
5283;BME280;15376;48.540;9.268;2022-07-29T11:21:52;97287.66;;;28.24;61.10
5283;BME280;15376;48.540;9.268;2022-07-29T11:24:23;97285.09;;;29.10;54.92
5283;BME280;15376;48.540;9.268;2022-07-29T11:29:40;97271.47;;;30.22;51.77
5283;BME280;15376;48.540;9.268;2022-07-29T11:32:15;97271.69;;;30.34;49.46
5283;BME280;15376;48.540;9.268;2022-07-29T11:34:43;97275.59;;;29.88;54.08
5283;BME280;15376;48.540;9.268;2022-07-29T11:39:39;97287.47;;;29.25;53.95
5283;BME280;15376;48.540;9.268;2022-07-29T11:47:25;97322.56;;;27.19;57.67
5283;BME280;15376;48.540;9.268;2022-07-29T11:49:51;97330.81;;;25.90;62.82
5283;BME280;15376;48.540;9.268;2022-07-29T11:52:18;97327.03;;;25.47;65.62
5283;BME280;15376;48.540;9.268;2022-07-29T11:54:44;97345.81;;;25.43;67.88
5283;BME280;15376;48.540;9.268;2022-07-29T11:57:12;97352.28;;;25.03;68.86
5283;BME280;15376;48.540;9.268;2022-07-29T11:59:43;97346.00;;;26.78;66.14
5283;BME280;15376;48.540;9.268;2022-07-29T12:02:09;97341.41;;;26.97;60.22
5283;BME280;15376;48.540;9.268;2022-07-29T12:04:55;97324.41;;;26.81;58.95
5283;BME280;15376;48.540;9.268;2022-07-29T12:07:32;97336.75;;;28.10;55.54
5283;BME280;15376;48.540;9.268;2022-07-29T12:09:58;97330.59;;;28.92;53.77
5283;BME280;15376;48.540;9.268;2022-07-29T12:12:23;97316.97;;;29.28;48.65
5283;BME280;15376;48.540;9.268;2022-07-29T12:14:49;97342.34;;;27.11;53.88
5283;BME280;15376;48.540;9.268;2022-07-29T12:17:29;97341.41;;;25.52;58.31
5283;BME280;15376;48.540;9.268;2022-07-29T12:19:55;97349.84;;;25.02;62.71
5283;BME280;15376;48.540;9.268;2022-07-29T12:22:41;97333.16;;;24.54;64.78
5283;BME280;15376;48.540;9.268;2022-07-29T12:25:11;97345.38;;;24.46;65.29
5283;BME280;15376;48.540;9.268;2022-07-29T12:27:39;97343.00;;;23.99;67.07
5283;BME280;15376;48.540;9.268;2022-07-29T12:30:07;97345.16;;;23.56;69.62
5283;BME280;15376;48.540;9.268;2022-07-29T12:32:33;97350.81;;;23.50;70.83
5283;BME280;15376;48.540;9.268;2022-07-29T12:35:05;97344.59;;;23.49;75.40
5283;BME280;15376;48.540;9.268;2022-07-29T12:37:33;97350.00;;;23.49;78.86
5283;BME280;15376;48.540;9.268;2022-07-29T12:39:59;97355.66;;;23.33;82.35
5283;BME280;15376;48.540;9.268;2022-07-29T12:42:25;97360.00;;;23.39;82.93
5283;BME280;15376;48.540;9.268;2022-07-29T12:44:51;97365.72;;;23.47;88.53
5283;BME280;15376;48.540;9.268;2022-07-29T12:47:17;97367.84;;;23.30;86.86
5283;BME280;15376;48.540;9.268;2022-07-29T12:49:44;97369.41;;;23.06;79.82
5283;BME280;15376;48.540;9.268;2022-07-29T12:52:33;97375.91;;;23.05;81.62
5283;BME280;15376;48.540;9.268;2022-07-29T12:55:00;97375.06;;;22.99;82.21
5283;BME280;15376;48.540;9.268;2022-07-29T12:57:26;97371.63;;;23.19;80.88
5283;BME280;15376;48.540;9.268;2022-07-29T13:00:10;97370.94;;;23.59;81.12
5283;BME280;15376;48.540;9.268;2022-07-29T13:02:37;97380.97;;;23.89;82.49
5283;BME280;15376;48.540;9.268;2022-07-29T13:05:04;97364.41;;;24.01;76.85
5283;BME280;15376;48.540;9.268;2022-07-29T13:07:32;97369.28;;;24.09;75.94
5283;BME280;15376;48.540;9.268;2022-07-29T13:10:10;97370.34;;;24.53;74.56
5283;BME280;15376;48.540;9.268;2022-07-29T13:12:37;97361.00;;;24.90;71.66
5283;BME280;15376;48.540;9.268;2022-07-29T13:15:15;97358.50;;;25.09;71.09
5283;BME280;15376;48.540;9.268;2022-07-29T13:17:44;97362.16;;;24.69;70.57
5283;BME280;15376;48.540;9.268;2022-07-29T13:20:11;97347.78;;;24.63;73.39
5283;BME280;15376;48.540;9.268;2022-07-29T13:22:40;97348.09;;;24.46;74.01
5283;BME280;15376;48.540;9.268;2022-07-29T13:25:08;97326.63;;;24.50;74.28
5283;BME280;15376;48.540;9.268;2022-07-29T13:27:35;97337.50;;;24.50;74.54
5283;BME280;15376;48.540;9.268;2022-07-29T13:30:07;97341.63;;;24.22;76.42
5283;BME280;15376;48.540;9.268;2022-07-29T13:32:33;97332.13;;;24.30;76.88
5283;BME280;15376;48.540;9.268;2022-07-29T13:35:01;97335.69;;;23.94;80.03